sensor_id;sensor_type;location;lat;lon;timestamp;pressure;altitude;pressure_sealevel;temperature;humidity
26083;BME280;13848;49.018;12.078;2023-02-15T00:00:51;99203.31;;;-0.78;92.38
26083;BME280;13848;49.018;12.078;2023-02-15T00:03:17;99204.44;;;-0.70;91.49
26083;BME280;13848;49.018;12.078;2023-02-15T00:05:44;99199.97;;;-0.81;91.11
26083;BME280;13848;49.018;12.078;2023-02-15T00:08:10;99202.94;;;-0.61;90.80
26083;BME280;13848;49.018;12.078;2023-02-15T00:10:36;99200.88;;;-0.82;90.71
26083;BME280;13848;49.018;12.078;2023-02-15T00:13:02;99205.69;;;-0.63;90.07
26083;BME280;13848;49.018;12.078;2023-02-15T00:15:28;99199.25;;;-0.71;90.02
26083;BME280;13848;49.018;12.078;2023-02-15T00:17:54;99205.97;;;-0.55;90.71
26083;BME280;13848;49.018;12.078;2023-02-15T00:20:19;99201.03;;;-0.48;90.28
26083;BME280;13848;49.018;12.078;2023-02-15T00:22:47;99200.09;;;-0.47;89.29
26083;BME280;13848;49.018;12.078;2023-02-15T00:25:13;99190.78;;;-0.52;88.49
26083;BME280;13848;49.018;12.078;2023-02-15T00:27:39;99191.38;;;-0.60;90.00
26083;BME280;13848;49.018;12.078;2023-02-15T00:30:06;99195.88;;;-0.49;89.54
26083;BME280;13848;49.018;12.078;2023-02-15T00:32:32;99196.09;;;-0.52;89.59
26083;BME280;13848;49.018;12.078;2023-02-15T00:34:58;99193.59;;;-0.43;89.62
26083;BME280;13848;49.018;12.078;2023-02-15T00:37:23;99192.63;;;-0.42;89.24
26083;BME280;13848;49.018;12.078;2023-02-15T00:39:51;99186.84;;;-0.47;88.72
26083;BME280;13848;49.018;12.078;2023-02-15T00:42:17;99186.13;;;-0.49;88.75
26083;BME280;13848;49.018;12.078;2023-02-15T00:44:43;99183.28;;;-0.35;88.47
26083;BME280;13848;49.018;12.078;2023-02-15T00:47:08;99184.00;;;-0.33;89.12
26083;BME280;13848;49.018;12.078;2023-02-15T00:49:34;99182.69;;;-0.27;88.55
26083;BME280;13848;49.018;12.078;2023-02-15T00:52:00;99180.50;;;-0.33;88.48
26083;BME280;13848;49.018;12.078;2023-02-15T00:54:26;99177.84;;;-0.44;87.87
26083;BME280;13848;49.018;12.078;2023-02-15T00:56:53;99178.66;;;-0.44;88.91
26083;BME280;13848;49.018;12.078;2023-02-15T00:59:19;99175.66;;;-0.50;88.82
26083;BME280;13848;49.018;12.078;2023-02-15T01:01:45;99169.84;;;-0.56;88.83
26083;BME280;13848;49.018;12.078;2023-02-15T01:04:11;99178.19;;;-0.73;88.36
26083;BME280;13848;49.018;12.078;2023-02-15T01:06:37;99167.88;;;-0.65;89.43
26083;BME280;13848;49.018;12.078;2023-02-15T01:09:03;99171.34;;;-0.64;89.37
26083;BME280;13848;49.018;12.078;2023-02-15T01:11:29;99165.16;;;-0.52;89.29
26083;BME280;13848;49.018;12.078;2023-02-15T01:13:57;99162.47;;;-0.63;89.58
26083;BME280;13848;49.018;12.078;2023-02-15T01:16:25;99160.00;;;-0.42;89.98
26083;BME280;13848;49.018;12.078;2023-02-15T01:18:51;99162.38;;;-0.86;90.18
26083;BME280;13848;49.018;12.078;2023-02-15T01:21:19;99162.53;;;-1.00;89.76
26083;BME280;13848;49.018;12.078;2023-02-15T01:23:46;99157.09;;;-0.86;90.68
26083;BME280;13848;49.018;12.078;2023-02-15T01:26:13;99162.38;;;-0.86;91.26
26083;BME280;13848;49.018;12.078;2023-02-15T01:28:39;99150.66;;;-0.59;89.97
26083;BME280;13848;49.018;12.078;2023-02-15T01:31:07;99148.56;;;-0.43;89.21
26083;BME280;13848;49.018;12.078;2023-02-15T01:33:34;99146.19;;;-0.35;89.03
26083;BME280;13848;49.018;12.078;2023-02-15T01:36:01;99137.97;;;-0.43;89.07
26083;BME280;13848;49.018;12.078;2023-02-15T01:38:27;99143.97;;;-0.52;88.86
26083;BME280;13848;49.018;12.078;2023-02-15T01:40:54;99137.72;;;-0.51;88.66
26083;BME280;13848;49.018;12.078;2023-02-15T01:43:20;99133.63;;;-0.44;88.19
26083;BME280;13848;49.018;12.078;2023-02-15T01:45:52;99133.03;;;-0.36;88.01
26083;BME280;13848;49.018;12.078;2023-02-15T01:48:27;99129.88;;;-0.52;89.03
26083;BME280;13848;49.018;12.078;2023-02-15T01:50:56;99117.50;;;-0.52;88.38
26083;BME280;13848;49.018;12.078;2023-02-15T01:53:25;99114.34;;;-0.57;88.33
26083;BME280;13848;49.018;12.078;2023-02-15T01:55:55;99123.84;;;-0.55;88.55
26083;BME280;13848;49.018;12.078;2023-02-15T01:58:25;99118.44;;;-0.42;89.22
26083;BME280;13848;49.018;12.078;2023-02-15T02:00:52;99116.06;;;-0.45;88.46
26083;BME280;13848;49.018;12.078;2023-02-15T02:03:25;99124.59;;;-0.41;88.30
26083;BME280;13848;49.018;12.078;2023-02-15T02:05:54;99112.94;;;-0.39;88.28
26083;BME280;13848;49.018;12.078;2023-02-15T02:08:20;99121.59;;;-0.37;88.40
26083;BME280;13848;49.018;12.078;2023-02-15T02:10:46;99112.03;;;-0.62;89.09
26083;BME280;13848;49.018;12.078;2023-02-15T02:13:12;99110.19;;;-0.72;89.07
26083;BME280;13848;49.018;12.078;2023-02-15T02:15:43;99108.25;;;-0.70;88.91
26083;BME280;13848;49.018;12.078;2023-02-15T02:18:22;99096.94;;;-0.72;88.79
26083;BME280;13848;49.018;12.078;2023-02-15T02:21:07;99096.44;;;-0.77;88.96
26083;BME280;13848;49.018;12.078;2023-02-15T02:23:51;99093.63;;;-0.63;89.28
26083;BME280;13848;49.018;12.078;2023-02-15T02:27:00;99084.13;;;-0.90;89.58
26083;BME280;13848;49.018;12.078;2023-02-15T02:35:45;99082.38;;;-0.78;88.65
26083;BME280;13848;49.018;12.078;2023-02-15T02:38:21;99078.09;;;-1.03;89.95
26083;BME280;13848;49.018;12.078;2023-02-15T02:40:54;99086.56;;;-0.87;90.11
26083;BME280;13848;49.018;12.078;2023-02-15T02:43:25;99075.97;;;-0.87;89.55
26083;BME280;13848;49.018;12.078;2023-02-15T02:45:57;99075.19;;;-1.00;89.13
26083;BME280;13848;49.018;12.078;2023-02-15T02:48:28;99073.81;;;-0.82;89.47
26083;BME280;13848;49.018;12.078;2023-02-15T02:50:56;99069.44;;;-0.94;89.85
26083;BME280;13848;49.018;12.078;2023-02-15T02:53:22;99065.84;;;-0.93;90.64
26083;BME280;13848;49.018;12.078;2023-02-15T02:55:50;99072.31;;;-0.97;90.12
26083;BME280;13848;49.018;12.078;2023-02-15T02:58:20;99068.75;;;-0.85;89.46
26083;BME280;13848;49.018;12.078;2023-02-15T03:00:53;99074.06;;;-0.85;89.96
26083;BME280;13848;49.018;12.078;2023-02-15T03:03:24;99073.84;;;-0.70;89.52
26083;BME280;13848;49.018;12.078;2023-02-15T03:05:54;99071.00;;;-0.56;88.96
26083;BME280;13848;49.018;12.078;2023-02-15T03:08:22;99076.63;;;-0.61;89.14
26083;BME280;13848;49.018;12.078;2023-02-15T03:10:52;99063.50;;;-0.73;89.21
26083;BME280;13848;49.018;12.078;2023-02-15T03:13:19;99058.19;;;-0.73;89.43
26083;BME280;13848;49.018;12.078;2023-02-15T03:15:46;99064.44;;;-0.86;90.39
26083;BME280;13848;49.018;12.078;2023-02-15T03:18:12;99069.84;;;-0.76;89.46
26083;BME280;13848;49.018;12.078;2023-02-15T03:20:39;99067.31;;;-0.77;88.82
26083;BME280;13848;49.018;12.078;2023-02-15T03:23:10;99069.81;;;-0.87;89.19
26083;BME280;13848;49.018;12.078;2023-02-15T03:25:41;99070.47;;;-0.72;88.79
26083;BME280;13848;49.018;12.078;2023-02-15T03:28:10;99073.50;;;-0.66;88.47
26083;BME280;13848;49.018;12.078;2023-02-15T03:30:39;99064.03;;;-0.57;87.73
26083;BME280;13848;49.018;12.078;2023-02-15T03:33:07;99067.03;;;-0.50;88.85
26083;BME280;13848;49.018;12.078;2023-02-15T03:35:39;99068.09;;;-0.53;87.51
26083;BME280;13848;49.018;12.078;2023-02-15T03:38:14;99055.31;;;-0.59;88.32
26083;BME280;13848;49.018;12.078;2023-02-15T03:40:44;99065.56;;;-0.55;88.28
26083;BME280;13848;49.018;12.078;2023-02-15T03:43:15;99063.28;;;-0.59;88.09
26083;BME280;13848;49.018;12.078;2023-02-15T03:45:46;99062.31;;;-0.58;88.10
26083;BME280;13848;49.018;12.078;2023-02-15T03:48:14;99060.88;;;-0.62;87.11
26083;BME280;13848;49.018;12.078;2023-02-15T03:50:41;99062.28;;;-0.81;87.32
26083;BME280;13848;49.018;12.078;2023-02-15T03:53:09;99057.59;;;-1.12;88.19
26083;BME280;13848;49.018;12.078;2023-02-15T03:55:38;99055.63;;;-1.21;89.99
26083;BME280;13848;49.018;12.078;2023-02-15T03:58:04;99059.47;;;-1.25;90.04
26083;BME280;13848;49.018;12.078;2023-02-15T04:00:36;99060.88;;;-1.32;90.04
26083;BME280;13848;49.018;12.078;2023-02-15T04:03:11;99062.28;;;-1.04;90.16
26083;BME280;13848;49.018;12.078;2023-02-15T04:05:38;99070.25;;;-1.28;90.07
26083;BME280;13848;49.018;12.078;2023-02-15T04:08:04;99071.06;;;-1.15;89.93
26083;BME280;13848;49.018;12.078;2023-02-15T04:10:30;99066.59;;;-1.15;90.07
26083;BME280;13848;49.018;12.078;2023-02-15T04:12:58;99071.47;;;-1.32;89.69
26083;BME280;13848;49.018;12.078;2023-02-15T04:15:26;99068.50;;;-1.41;90.32
26083;BME280;13848;49.018;12.078;2023-02-15T04:17:52;99064.81;;;-1.38;90.23
26083;BME280;13848;49.018;12.078;2023-02-15T04:20:18;99062.63;;;-1.20;89.79
26083;BME280;13848;49.018;12.078;2023-02-15T04:22:44;99067.41;;;-1.49;90.82
26083;BME280;13848;49.018;12.078;2023-02-15T04:25:10;99065.53;;;-1.60;91.13
26083;BME280;13848;49.018;12.078;2023-02-15T04:27:36;99066.09;;;-1.44;90.93
26083;BME280;13848;49.018;12.078;2023-02-15T04:30:06;99066.22;;;-1.21;90.56
26083;BME280;13848;49.018;12.078;2023-02-15T04:32:33;99067.78;;;-1.43;90.97
26083;BME280;13848;49.018;12.078;2023-02-15T04:34:59;99063.72;;;-1.36;90.82
26083;BME280;13848;49.018;12.078;2023-02-15T04:37:24;99061.25;;;-1.50;92.01
26083;BME280;13848;49.018;12.078;2023-02-15T04:39:50;99073.47;;;-1.36;91.38
26083;BME280;13848;49.018;12.078;2023-02-15T04:42:16;99072.34;;;-1.45;92.01
26083;BME280;13848;49.018;12.078;2023-02-15T04:44:42;99077.97;;;-1.49;91.99
26083;BME280;13848;49.018;12.078;2023-02-15T04:47:10;99077.28;;;-1.64;92.03
26083;BME280;13848;49.018;12.078;2023-02-15T04:49:35;99082.88;;;-1.69;92.16
26083;BME280;13848;49.018;12.078;2023-02-15T04:52:01;99078.63;;;-1.58;93.01
26083;BME280;13848;49.018;12.078;2023-02-15T04:54:28;99070.69;;;-1.35;91.67
26083;BME280;13848;49.018;12.078;2023-02-15T04:56:53;99075.38;;;-1.14;91.43
26083;BME280;13848;49.018;12.078;2023-02-15T04:59:19;99075.19;;;-1.00;91.09
26083;BME280;13848;49.018;12.078;2023-02-15T05:01:45;99067.19;;;-1.11;90.39
26083;BME280;13848;49.018;12.078;2023-02-15T05:04:12;99064.81;;;-1.14;90.23
26083;BME280;13848;49.018;12.078;2023-02-15T05:06:38;99062.19;;;-1.03;90.30
26083;BME280;13848;49.018;12.078;2023-02-15T05:09:04;99060.72;;;-1.07;90.35
26083;BME280;13848;49.018;12.078;2023-02-15T05:11:30;99058.13;;;-0.96;89.42
26083;BME280;13848;49.018;12.078;2023-02-15T05:13:56;99065.59;;;-0.90;90.29
26083;BME280;13848;49.018;12.078;2023-02-15T05:16:22;99065.38;;;-0.87;89.75
26083;BME280;13848;49.018;12.078;2023-02-15T05:18:48;99068.94;;;-0.99;88.90
26083;BME280;13848;49.018;12.078;2023-02-15T05:21:15;99075.34;;;-1.25;89.77
26083;BME280;13848;49.018;12.078;2023-02-15T05:23:41;99074.88;;;-1.19;90.04
26083;BME280;13848;49.018;12.078;2023-02-15T05:26:09;99065.06;;;-1.06;90.44
26083;BME280;13848;49.018;12.078;2023-02-15T05:28:36;99060.47;;;-1.15;89.87
26083;BME280;13848;49.018;12.078;2023-02-15T05:31:06;99063.16;;;-1.04;89.72
26083;BME280;13848;49.018;12.078;2023-02-15T05:33:33;99062.97;;;-0.90;89.77
26083;BME280;13848;49.018;12.078;2023-02-15T05:35:59;99057.78;;;-0.91;88.89
26083;BME280;13848;49.018;12.078;2023-02-15T05:38:26;99055.25;;;-0.93;88.92
26083;BME280;13848;49.018;12.078;2023-02-15T05:40:53;99064.13;;;-0.94;89.04
26083;BME280;13848;49.018;12.078;2023-02-15T05:43:19;99055.00;;;-0.90;88.59
26083;BME280;13848;49.018;12.078;2023-02-15T05:45:46;99059.59;;;-0.92;89.59
26083;BME280;13848;49.018;12.078;2023-02-15T05:48:12;99067.41;;;-0.90;89.05
26083;BME280;13848;49.018;12.078;2023-02-15T05:50:38;99060.78;;;-0.96;89.23
26083;BME280;13848;49.018;12.078;2023-02-15T05:53:04;99069.53;;;-1.30;89.59
26083;BME280;13848;49.018;12.078;2023-02-15T05:55:31;99065.00;;;-1.17;90.16
26083;BME280;13848;49.018;12.078;2023-02-15T05:57:57;99077.47;;;-1.30;90.62
26083;BME280;13848;49.018;12.078;2023-02-15T06:00:23;99069.84;;;-1.35;91.53
26083;BME280;13848;49.018;12.078;2023-02-15T06:02:49;99075.13;;;-1.11;91.21
26083;BME280;13848;49.018;12.078;2023-02-15T06:05:15;99076.00;;;-1.35;91.59
26083;BME280;13848;49.018;12.078;2023-02-15T06:07:42;99074.09;;;-1.32;91.69
26083;BME280;13848;49.018;12.078;2023-02-15T06:10:09;99082.53;;;-1.27;91.69
26083;BME280;13848;49.018;12.078;2023-02-15T06:12:36;99073.69;;;-1.15;91.36
26083;BME280;13848;49.018;12.078;2023-02-15T06:15:02;99079.16;;;-1.29;90.83
26083;BME280;13848;49.018;12.078;2023-02-15T06:17:28;99086.50;;;-1.46;92.76
26083;BME280;13848;49.018;12.078;2023-02-15T06:19:54;99089.84;;;-1.31;91.79
26083;BME280;13848;49.018;12.078;2023-02-15T06:22:20;99094.44;;;-1.33;91.31
26083;BME280;13848;49.018;12.078;2023-02-15T06:24:46;99090.47;;;-1.27;91.74
26083;BME280;13848;49.018;12.078;2023-02-15T06:27:12;99099.66;;;-1.20;91.63
26083;BME280;13848;49.018;12.078;2023-02-15T06:29:39;99093.91;;;-1.14;91.57
26083;BME280;13848;49.018;12.078;2023-02-15T06:32:06;99099.91;;;-1.36;91.57
26083;BME280;13848;49.018;12.078;2023-02-15T06:34:32;99094.25;;;-1.43;92.37
26083;BME280;13848;49.018;12.078;2023-02-15T06:36:58;99094.91;;;-1.28;92.02
26083;BME280;13848;49.018;12.078;2023-02-15T06:39:24;99093.59;;;-1.22;91.91
26083;BME280;13848;49.018;12.078;2023-02-15T06:41:51;99085.19;;;-1.27;91.89
26083;BME280;13848;49.018;12.078;2023-02-15T06:44:17;99099.09;;;-1.37;91.44
26083;BME280;13848;49.018;12.078;2023-02-15T06:46:44;99090.94;;;-1.70;93.12
26083;BME280;13848;49.018;12.078;2023-02-15T06:49:10;99108.91;;;-1.75;93.36
26083;BME280;13848;49.018;12.078;2023-02-15T06:51:36;99106.78;;;-1.70;93.82
26083;BME280;13848;49.018;12.078;2023-02-15T06:54:02;99103.00;;;-1.66;93.36
26083;BME280;13848;49.018;12.078;2023-02-15T06:56:29;99104.06;;;-1.81;93.46
26083;BME280;13848;49.018;12.078;2023-02-15T06:58:55;99107.47;;;-1.79;94.18
26083;BME280;13848;49.018;12.078;2023-02-15T07:01:21;99096.91;;;-1.79;93.53
26083;BME280;13848;49.018;12.078;2023-02-15T07:03:49;99094.88;;;-1.89;94.61
26083;BME280;13848;49.018;12.078;2023-02-15T07:06:15;99098.44;;;-1.64;94.10
26083;BME280;13848;49.018;12.078;2023-02-15T07:08:41;99102.75;;;-1.63;94.01
26083;BME280;13848;49.018;12.078;2023-02-15T07:11:07;99105.53;;;-1.77;94.36
26083;BME280;13848;49.018;12.078;2023-02-15T07:13:33;99101.50;;;-1.70;94.12
26083;BME280;13848;49.018;12.078;2023-02-15T07:15:58;99098.31;;;-1.63;94.42
26083;BME280;13848;49.018;12.078;2023-02-15T07:18:24;99096.00;;;-1.67;94.14
26083;BME280;13848;49.018;12.078;2023-02-15T07:20:52;99097.47;;;-1.63;94.35
26083;BME280;13848;49.018;12.078;2023-02-15T07:23:17;99092.19;;;-1.63;93.72
26083;BME280;13848;49.018;12.078;2023-02-15T07:25:43;99086.00;;;-1.51;94.08
26083;BME280;13848;49.018;12.078;2023-02-15T07:28:09;99086.28;;;-1.67;93.69
26083;BME280;13848;49.018;12.078;2023-02-15T07:30:35;99078.06;;;-1.88;94.72
26083;BME280;13848;49.018;12.078;2023-02-15T07:33:01;99074.88;;;-1.80;95.23
26083;BME280;13848;49.018;12.078;2023-02-15T07:35:27;99085.72;;;-1.96;95.53
26083;BME280;13848;49.018;12.078;2023-02-15T07:37:55;99081.44;;;-1.73;95.82
26083;BME280;13848;49.018;12.078;2023-02-15T07:40:21;99080.16;;;-1.67;94.45
26083;BME280;13848;49.018;12.078;2023-02-15T07:42:47;99074.47;;;-1.87;95.58
26083;BME280;13848;49.018;12.078;2023-02-15T07:45:13;99068.75;;;-1.80;94.91
26083;BME280;13848;49.018;12.078;2023-02-15T07:47:38;99079.72;;;-1.61;94.22
26083;BME280;13848;49.018;12.078;2023-02-15T07:50:05;99068.94;;;-1.71;94.35
26083;BME280;13848;49.018;12.078;2023-02-15T07:52:31;99070.56;;;-1.57;94.36
26083;BME280;13848;49.018;12.078;2023-02-15T07:54:59;99071.91;;;-1.75;95.06
26083;BME280;13848;49.018;12.078;2023-02-15T07:57:25;99076.34;;;-1.76;94.68
26083;BME280;13848;49.018;12.078;2023-02-15T07:59:50;99075.44;;;-1.88;95.41
26083;BME280;13848;49.018;12.078;2023-02-15T08:02:16;99077.63;;;-1.81;95.26
26083;BME280;13848;49.018;12.078;2023-02-15T08:04:42;99076.31;;;-1.63;94.19
26083;BME280;13848;49.018;12.078;2023-02-15T08:07:08;99088.88;;;-1.91;94.79
26083;BME280;13848;49.018;12.078;2023-02-15T08:09:34;99088.97;;;-1.92;94.74
26083;BME280;13848;49.018;12.078;2023-02-15T08:12:01;99081.88;;;-1.92;94.89
26083;BME280;13848;49.018;12.078;2023-02-15T08:14:27;99082.91;;;-1.81;94.36
26083;BME280;13848;49.018;12.078;2023-02-15T08:16:54;99081.25;;;-1.82;94.24
26083;BME280;13848;49.018;12.078;2023-02-15T08:19:22;99087.22;;;-2.17;95.13
26083;BME280;13848;49.018;12.078;2023-02-15T08:21:49;99085.91;;;-1.99;95.56
26083;BME280;13848;49.018;12.078;2023-02-15T08:24:18;99087.75;;;-2.12;95.96
26083;BME280;13848;49.018;12.078;2023-02-15T08:26:44;99085.28;;;-2.15;96.91
26083;BME280;13848;49.018;12.078;2023-02-15T08:29:13;99084.81;;;-2.20;97.02
26083;BME280;13848;49.018;12.078;2023-02-15T08:31:39;99089.31;;;-2.09;97.34
26083;BME280;13848;49.018;12.078;2023-02-15T08:34:05;99079.81;;;-2.12;97.28
26083;BME280;13848;49.018;12.078;2023-02-15T08:36:31;99080.88;;;-2.27;97.78
26083;BME280;13848;49.018;12.078;2023-02-15T08:38:58;99092.72;;;-2.20;97.71
26083;BME280;13848;49.018;12.078;2023-02-15T08:41:26;99086.34;;;-2.05;96.68
26083;BME280;13848;49.018;12.078;2023-02-15T08:43:53;99081.91;;;-2.04;97.10
26083;BME280;13848;49.018;12.078;2023-02-15T08:46:22;99077.03;;;-1.85;96.95
26083;BME280;13848;49.018;12.078;2023-02-15T08:48:49;99081.97;;;-1.80;96.38
26083;BME280;13848;49.018;12.078;2023-02-15T08:51:17;99081.31;;;-1.71;95.94
26083;BME280;13848;49.018;12.078;2023-02-15T08:53:45;99086.81;;;-1.74;95.85
26083;BME280;13848;49.018;12.078;2023-02-15T08:56:12;99092.97;;;-1.74;95.18
26083;BME280;13848;49.018;12.078;2023-02-15T08:58:38;99088.25;;;-1.94;96.12
26083;BME280;13848;49.018;12.078;2023-02-15T09:01:11;99092.97;;;-1.87;96.07
26083;BME280;13848;49.018;12.078;2023-02-15T09:03:39;99084.13;;;-1.85;95.88
26083;BME280;13848;49.018;12.078;2023-02-15T09:06:06;99079.75;;;-1.87;95.46
26083;BME280;13848;49.018;12.078;2023-02-15T09:08:32;99081.88;;;-1.79;95.44
26083;BME280;13848;49.018;12.078;2023-02-15T09:11:05;99081.75;;;-1.77;94.84
26083;BME280;13848;49.018;12.078;2023-02-15T09:13:32;99086.25;;;-1.54;94.98
26083;BME280;13848;49.018;12.078;2023-02-15T09:15:59;99085.16;;;-1.51;94.64
26083;BME280;13848;49.018;12.078;2023-02-15T09:18:25;99080.34;;;-1.70;94.60
26083;BME280;13848;49.018;12.078;2023-02-15T09:20:53;99084.75;;;-1.58;94.72
26083;BME280;13848;49.018;12.078;2023-02-15T09:23:19;99081.97;;;-1.44;95.02
26083;BME280;13848;49.018;12.078;2023-02-15T09:25:44;99077.25;;;-1.27;93.50
26083;BME280;13848;49.018;12.078;2023-02-15T09:28:10;99083.00;;;-1.70;93.86
26083;BME280;13848;49.018;12.078;2023-02-15T09:30:37;99081.88;;;-1.79;94.30
26083;BME280;13848;49.018;12.078;2023-02-15T09:33:03;99085.28;;;-1.90;94.77
26083;BME280;13848;49.018;12.078;2023-02-15T09:35:29;99078.94;;;-2.00;95.35
26083;BME280;13848;49.018;12.078;2023-02-15T09:37:56;99083.41;;;-2.13;95.80
26083;BME280;13848;49.018;12.078;2023-02-15T09:40:22;99081.28;;;-2.08;96.52
26083;BME280;13848;49.018;12.078;2023-02-15T09:43:10;99085.91;;;-1.99;96.08
26083;BME280;13848;49.018;12.078;2023-02-15T09:46:15;99083.16;;;-1.97;95.48
26083;BME280;13848;49.018;12.078;2023-02-15T09:48:46;99082.53;;;-2.01;95.73
26083;BME280;13848;49.018;12.078;2023-02-15T09:54:27;99082.34;;;-2.10;96.67
26083;BME280;13848;49.018;12.078;2023-02-15T09:56:58;99092.25;;;-1.89;95.86
26083;BME280;13848;49.018;12.078;2023-02-15T09:59:32;99085.44;;;-1.80;95.33
26083;BME280;13848;49.018;12.078;2023-02-15T10:02:13;99095.41;;;-1.83;95.41
26083;BME280;13848;49.018;12.078;2023-02-15T10:04:53;99088.22;;;-1.81;95.09
26083;BME280;13848;49.018;12.078;2023-02-15T10:07:43;99084.56;;;-1.55;94.24
26083;BME280;13848;49.018;12.078;2023-02-15T10:10:20;99092.31;;;-1.41;93.45
26083;BME280;13848;49.018;12.078;2023-02-15T10:12:59;99095.56;;;-1.61;93.63
26083;BME280;13848;49.018;12.078;2023-02-15T10:15:48;99089.84;;;-1.55;94.74
26083;BME280;13848;49.018;12.078;2023-02-15T10:18:36;99094.00;;;-1.40;93.43
26083;BME280;13848;49.018;12.078;2023-02-15T10:21:15;99082.56;;;-1.40;92.78
26083;BME280;13848;49.018;12.078;2023-02-15T10:24:10;99083.88;;;-1.46;92.93
26083;BME280;13848;49.018;12.078;2023-02-15T10:26:43;99079.59;;;-1.36;92.97
26083;BME280;13848;49.018;12.078;2023-02-15T10:29:17;99080.06;;;-1.42;92.27
26083;BME280;13848;49.018;12.078;2023-02-15T10:31:48;99086.56;;;-1.35;92.75
26083;BME280;13848;49.018;12.078;2023-02-15T10:34:16;99078.38;;;-1.43;93.15
26083;BME280;13848;49.018;12.078;2023-02-15T10:39:47;99061.25;;;-1.02;92.30
26083;BME280;13848;49.018;12.078;2023-02-15T10:42:24;99057.88;;;-1.04;91.96
26083;BME280;13848;49.018;12.078;2023-02-15T10:45:06;99068.22;;;-1.25;92.64
26083;BME280;13848;49.018;12.078;2023-02-15T10:47:52;99061.47;;;-1.53;93.42
26083;BME280;13848;49.018;12.078;2023-02-15T10:50:29;99059.63;;;-1.40;93.55
26083;BME280;13848;49.018;12.078;2023-02-15T10:53:18;99053.59;;;-1.42;93.67
26083;BME280;13848;49.018;12.078;2023-02-15T10:55:53;99062.56;;;-1.31;93.20
26083;BME280;13848;49.018;12.078;2023-02-15T10:58:31;99060.56;;;-1.41;93.91
26083;BME280;13848;49.018;12.078;2023-02-15T11:01:06;99052.56;;;-1.28;93.44
26083;BME280;13848;49.018;12.078;2023-02-15T11:03:43;99041.44;;;-1.20;93.04
26083;BME280;13848;49.018;12.078;2023-02-15T11:06:14;99035.72;;;-1.03;93.49
26083;BME280;13848;49.018;12.078;2023-02-15T11:08:44;99030.03;;;-0.74;92.37
26083;BME280;13848;49.018;12.078;2023-02-15T11:11:15;99028.22;;;-0.74;91.73
26083;BME280;13848;49.018;12.078;2023-02-15T11:13:50;99029.44;;;-0.67;91.92
26083;BME280;13848;49.018;12.078;2023-02-15T11:16:20;99029.81;;;-0.60;91.56
26083;BME280;13848;49.018;12.078;2023-02-15T11:18:53;99030.03;;;-0.74;90.40
26083;BME280;13848;49.018;12.078;2023-02-15T11:21:22;99032.84;;;-1.00;91.22
26083;BME280;13848;49.018;12.078;2023-02-15T11:23:51;99026.16;;;-0.82;91.46
26083;BME280;13848;49.018;12.078;2023-02-15T11:26:21;99027.72;;;-0.79;90.67
26083;BME280;13848;49.018;12.078;2023-02-15T11:28:52;99023.19;;;-1.12;90.65
26083;BME280;13848;49.018;12.078;2023-02-15T11:31:21;99023.72;;;-0.96;92.03
26083;BME280;13848;49.018;12.078;2023-02-15T11:33:51;99009.97;;;-1.01;91.08
26083;BME280;13848;49.018;12.078;2023-02-15T11:36:21;99008.50;;;-1.05;91.73
26083;BME280;13848;49.018;12.078;2023-02-15T11:38:52;99000.97;;;-0.87;91.89
26083;BME280;13848;49.018;12.078;2023-02-15T11:41:25;99006.09;;;-0.62;90.97
26083;BME280;13848;49.018;12.078;2023-02-15T11:43:58;99004.50;;;-0.64;90.69
26083;BME280;13848;49.018;12.078;2023-02-15T11:46:27;98993.66;;;-0.84;91.16
26083;BME280;13848;49.018;12.078;2023-02-15T11:48:53;98989.34;;;-0.73;91.33
26083;BME280;13848;49.018;12.078;2023-02-15T11:51:21;98986.44;;;-0.93;91.30
26083;BME280;13848;49.018;12.078;2023-02-15T11:53:48;98990.97;;;-1.06;92.28
26083;BME280;13848;49.018;12.078;2023-02-15T11:56:15;98977.75;;;-0.95;92.31
26083;BME280;13848;49.018;12.078;2023-02-15T11:58:44;98981.84;;;-1.02;92.25
26083;BME280;13848;49.018;12.078;2023-02-15T12:01:16;98973.88;;;-1.02;92.32
26083;BME280;13848;49.018;12.078;2023-02-15T12:03:46;98977.91;;;-0.85;92.14
26083;BME280;13848;49.018;12.078;2023-02-15T12:06:18;98975.50;;;-0.66;91.73
26083;BME280;13848;49.018;12.078;2023-02-15T12:08:49;98979.25;;;-0.68;90.80
26083;BME280;13848;49.018;12.078;2023-02-15T12:11:20;98973.22;;;-0.59;90.72
26083;BME280;13848;49.018;12.078;2023-02-15T12:13:55;98968.66;;;-0.46;90.69
26083;BME280;13848;49.018;12.078;2023-02-15T12:16:24;98970.84;;;-0.51;90.83
26083;BME280;13848;49.018;12.078;2023-02-15T12:18:52;98966.13;;;-0.59;91.27
26083;BME280;13848;49.018;12.078;2023-02-15T12:21:26;98960.34;;;-0.41;91.19
26083;BME280;13848;49.018;12.078;2023-02-15T12:23:54;98958.28;;;-0.27;89.81
26083;BME280;13848;49.018;12.078;2023-02-15T12:26:24;98953.34;;;-0.20;90.03
26083;BME280;13848;49.018;12.078;2023-02-15T12:28:51;98956.13;;;-0.55;89.85
26083;BME280;13848;49.018;12.078;2023-02-15T12:31:20;98947.09;;;-0.52;91.59
26083;BME280;13848;49.018;12.078;2023-02-15T12:33:52;98952.16;;;-0.27;92.15
26083;BME280;13848;49.018;12.078;2023-02-15T12:36:20;98942.53;;;-0.28;90.73
26083;BME280;13848;49.018;12.078;2023-02-15T12:39:04;98944.81;;;-0.57;90.89
26083;BME280;13848;49.018;12.078;2023-02-15T12:41:30;98938.69;;;-0.46;91.33
26083;BME280;13848;49.018;12.078;2023-02-15T12:44:05;98951.31;;;-0.50;91.28
26083;BME280;13848;49.018;12.078;2023-02-15T12:46:31;98945.31;;;-0.52;90.78
26083;BME280;13848;49.018;12.078;2023-02-15T12:49:16;98941.44;;;-0.48;91.33
26083;BME280;13848;49.018;12.078;2023-02-15T12:51:44;98942.03;;;-0.44;91.40
26083;BME280;13848;49.018;12.078;2023-02-15T12:54:28;98943.84;;;-0.45;91.50
26083;BME280;13848;49.018;12.078;2023-02-15T12:56:55;98938.44;;;-0.55;92.33
26083;BME280;13848;49.018;12.078;2023-02-15T12:59:21;98945.91;;;-0.60;92.25
26083;BME280;13848;49.018;12.078;2023-02-15T13:01:48;98943.25;;;-0.71;92.17
26083;BME280;13848;49.018;12.078;2023-02-15T13:04:22;98937.69;;;-0.90;92.58
26083;BME280;13848;49.018;12.078;2023-02-15T13:06:51;98924.84;;;-0.72;92.92
26083;BME280;13848;49.018;12.078;2023-02-15T13:09:20;98933.00;;;-0.53;92.17
26083;BME280;13848;49.018;12.078;2023-02-15T13:11:46;98927.00;;;-0.55;91.77